createdAt,value
2019-04-27T00:02:44.185Z,2.72
2019-04-27T00:07:56.268Z,2.93
2019-04-27T00:13:04.121Z,3.17
2019-04-27T00:18:13.985Z,3.18
2019-04-27T00:23:18.267Z,3.34
2019-04-27T00:28:27.164Z,3.22
2019-04-27T00:33:35.985Z,3.61
2019-04-27T00:38:44.916Z,3.71
2019-04-27T00:43:53.772Z,3.74
2019-04-27T00:49:03.710Z,3.83
2019-04-27T00:54:11.172Z,3.91
2019-04-27T00:59:20.099Z,3.73
2019-04-27T01:04:28.948Z,4.11
2019-04-27T01:09:37.788Z,4.23
2019-04-27T01:14:46.627Z,4.43
2019-04-27T01:19:55.613Z,4.56
2019-04-27T01:25:04.457Z,4.47
2019-04-27T01:30:13.367Z,4.53
2019-04-27T01:35:22.235Z,4.70
2019-04-27T01:40:31.142Z,5.14
2019-04-27T01:45:39.979Z,4.78
2019-04-27T01:50:49.280Z,4.89
2019-04-27T01:55:59.059Z,5.28
2019-04-27T02:01:05.631Z,5.10
2019-04-27T02:06:14.551Z,5.09
2019-04-27T02:11:23.443Z,5.37
2019-04-27T02:16:32.296Z,5.04
2019-04-27T02:21:41.150Z,4.85
2019-04-27T02:26:50.030Z,4.65
2019-04-27T02:37:05.292Z,4.94
2019-04-27T02:42:14.160Z,4.72
2019-04-27T02:47:23.048Z,4.72
2019-04-27T02:52:31.895Z,4.78
2019-04-27T02:57:40.803Z,4.57
2019-04-27T03:02:51.037Z,4.68
2019-04-27T03:07:59.764Z,4.74
2019-04-27T03:13:06.580Z,4.62
2019-04-27T03:18:15.551Z,5.03
2019-04-27T03:23:24.424Z,5.26
2019-04-27T03:28:33.297Z,5.84
2019-04-27T03:33:43.208Z,5.86
2019-04-27T03:38:50.555Z,5.93
2019-04-27T03:43:59.645Z,6.23
2019-04-27T03:49:09.763Z,6.37
2019-04-27T03:54:19.342Z,6.70
2019-04-27T03:59:25.076Z,6.20
2019-04-27T04:04:33.952Z,5.84
2019-04-27T04:09:42.811Z,5.59
2019-04-27T04:14:51.742Z,5.83
2019-04-27T04:20:01.544Z,5.82
2019-04-27T04:25:10.746Z,4.75
2019-04-27T04:30:19.798Z,5.03
2019-04-27T04:35:25.779Z,4.62
2019-04-27T04:40:34.707Z,4.80
2019-04-27T04:45:43.595Z,4.53
2019-04-27T04:50:52.491Z,4.89
2019-04-27T04:56:01.403Z,4.81
2019-04-27T05:01:10.270Z,5.54
2019-04-27T05:06:19.247Z,5.67
2019-04-27T05:11:29.609Z,5.37
2019-04-27T05:16:36.521Z,5.32
2019-04-27T05:21:45.413Z,5.34
2019-04-27T05:26:54.283Z,6.39
2019-04-27T05:32:03.140Z,6.22
2019-04-27T05:37:11.995Z,6.17
2019-04-27T05:42:20.864Z,6.05
2019-04-27T05:47:29.723Z,6.33
2019-04-27T05:52:38.632Z,6.95
2019-04-27T05:57:46.968Z,6.57
2019-04-27T06:02:55.363Z,6.40
2019-04-27T06:08:04.235Z,5.95
2019-04-27T06:13:13.113Z,5.54
2019-04-27T06:18:21.973Z,5.53
2019-04-27T06:23:30.832Z,5.44
2019-04-27T06:28:39.890Z,4.84
2019-04-27T06:33:49.734Z,4.55
2019-04-27T06:38:58.789Z,4.41
2019-04-27T06:44:05.359Z,4.60
2019-04-27T06:49:14.227Z,3.96
2019-04-27T06:54:23.076Z,3.86
2019-04-27T06:59:31.979Z,4.40
2019-04-27T07:04:40.894Z,3.13
2019-04-27T07:09:49.737Z,2.86
2019-04-27T07:14:59.234Z,2.71
2019-04-27T07:20:08.546Z,2.82
2019-04-27T07:25:15.343Z,4.09
2019-04-27T07:30:24.199Z,4.18
2019-04-27T07:35:33.047Z,3.80
2019-04-27T07:40:42.166Z,3.29
2019-04-27T07:45:51.010Z,3.94
2019-04-27T07:50:59.841Z,3.09
2019-04-27T07:56:09.349Z,3.73
2019-04-27T08:01:17.112Z,3.83
2019-04-27T08:06:26.007Z,3.79
2019-04-27T08:11:34.864Z,3.60
2019-04-27T08:16:43.749Z,3.55
2019-04-27T08:21:52.624Z,3.43
2019-04-27T08:27:01.572Z,4.08
2019-04-27T08:32:10.420Z,3.92
2019-04-27T08:37:19.297Z,3.67
2019-04-27T08:42:29.375Z,3.96
2019-04-27T08:47:36.583Z,3.75
2019-04-27T08:52:45.452Z,4.09
2019-04-27T08:57:54.401Z,4.80
2019-04-27T09:03:03.283Z,4.35
2019-04-27T09:08:12.189Z,4.22
2019-04-27T09:13:21.072Z,4.31
2019-04-27T09:18:32.376Z,4.67
2019-04-27T09:23:38.910Z,4.21
2019-04-27T09:28:46.796Z,3.98
2019-04-27T09:33:55.671Z,3.93
2019-04-27T09:39:06.269Z,3.84
2019-04-27T09:44:12.994Z,4.07
2019-04-27T09:49:21.820Z,4.02
2019-04-27T09:54:30.682Z,3.68
2019-04-27T09:59:39.692Z,3.42
2019-04-27T10:04:47.869Z,3.83
2019-04-27T10:09:56.723Z,3.44
2019-04-27T10:15:06.142Z,3.73
2019-04-27T10:20:13.984Z,4.05
2019-04-27T10:25:22.824Z,3.47
2019-04-27T10:30:31.736Z,3.06
2019-04-27T10:35:40.574Z,3.05
2019-04-27T10:40:49.432Z,2.99
2019-04-27T10:45:58.325Z,2.93
2019-04-27T10:51:07.428Z,2.90
2019-04-27T10:56:16.088Z,2.96
2019-04-27T11:01:25.778Z,2.89
2019-04-27T11:06:33.315Z,3.02
2019-04-27T11:11:42.175Z,3.78
2019-04-27T11:16:51.013Z,3.35
2019-04-27T11:21:59.895Z,3.18
2019-04-27T11:27:08.759Z,3.24
2019-04-27T11:32:17.621Z,3.49
2019-04-27T11:37:26.472Z,3.80
2019-04-27T11:42:35.543Z,3.69
2019-04-27T11:47:44.466Z,4.00
2019-04-27T11:52:53.327Z,3.65
2019-04-27T11:58:02.211Z,3.65
2019-04-27T12:03:11.071Z,4.19
2019-04-27T12:08:19.892Z,3.87
2019-04-27T12:13:28.780Z,3.81
2019-04-27T12:18:37.639Z,3.69
2019-04-27T12:23:47.222Z,3.16
2019-04-27T12:28:56.093Z,2.82
2019-04-27T12:34:03.387Z,2.73
2019-04-27T12:39:12.210Z,2.95
2019-04-27T12:44:21.055Z,3.97
2019-04-27T12:49:29.945Z,3.75
2019-04-27T12:54:38.781Z,3.66
2019-04-27T12:59:47.695Z,3.45
2019-04-27T13:04:56.833Z,3.40
2019-04-27T13:10:05.761Z,3.37
2019-04-27T13:15:14.292Z,3.46
2019-04-27T13:20:23.212Z,2.87
2019-04-27T13:25:32.079Z,2.92
2019-04-27T13:30:40.953Z,3.01
2019-04-27T13:35:49.863Z,4.09
2019-04-27T13:40:58.659Z,3.97
2019-04-27T13:46:08.162Z,3.62
2019-04-27T13:51:16.630Z,3.11
2019-04-27T13:56:24.315Z,3.47
2019-04-27T14:01:33.173Z,3.19
2019-04-27T14:06:42.187Z,3.28
2019-04-27T14:11:50.987Z,3.30
2019-04-27T14:16:59.912Z,3.26
2019-04-27T14:22:09.188Z,3.70
2019-04-27T14:27:17.187Z,4.22
2019-04-27T14:32:26.057Z,2.92
2019-04-27T14:37:34.924Z,3.05
2019-04-27T14:42:43.784Z,3.04
2019-04-27T14:47:52.697Z,2.89
2019-04-27T14:53:01.546Z,3.17
2019-04-27T14:58:10.416Z,3.51
2019-04-27T15:03:19.255Z,2.91
2019-04-27T15:08:28.133Z,2.77
2019-04-27T15:13:37.858Z,3.01
2019-04-27T15:18:45.440Z,3.19
2019-04-27T15:23:54.345Z,2.73
2019-04-27T15:29:03.231Z,3.22
2019-04-27T15:34:12.113Z,2.56
2019-04-27T15:39:22.576Z,2.76
2019-04-27T15:44:29.346Z,2.96
2019-04-27T15:49:38.734Z,2.85
2019-04-27T15:54:48.112Z,2.75
2019-04-27T15:59:54.955Z,2.83
2019-04-27T16:05:03.816Z,2.63
2019-04-27T16:10:12.697Z,2.62
2019-04-27T16:15:21.609Z,2.61
2019-04-27T16:20:33.910Z,2.71
2019-04-27T16:30:50.635Z,5.07
2019-04-27T16:36:00.560Z,5.80
2019-04-27T16:41:04.125Z,5.53
2019-04-27T16:46:13.028Z,5.36
2019-04-27T16:51:21.888Z,5.06
2019-04-27T16:56:30.787Z,5.28
2019-04-27T17:01:46.145Z,4.37
2019-04-27T17:06:49.503Z,4.38
2019-04-27T17:11:56.747Z,4.78
2019-04-27T17:17:08.744Z,4.44
2019-04-27T17:22:14.709Z,4.27
2019-04-27T17:27:28.774Z,4.30
2019-04-27T17:32:33.568Z,3.63
2019-04-27T17:37:38.436Z,3.49
2019-04-27T17:42:48.166Z,3.57
2019-04-27T17:48:00.342Z,4.55
2019-04-27T17:53:04.174Z,4.02
2019-04-27T17:58:13.090Z,3.66
2019-04-27T18:03:21.901Z,3.39
2019-04-27T18:08:30.761Z,3.42
2019-04-27T18:13:42.017Z,2.99
2019-04-27T18:18:48.653Z,2.94
2019-04-27T18:23:58.290Z,2.84
2019-04-27T18:29:04.765Z,2.75
2019-04-27T18:34:15.048Z,3.01
2019-04-27T18:39:22.073Z,3.03
2019-04-27T18:44:31.876Z,3.13
2019-04-27T18:49:39.491Z,3.26
2019-04-27T18:54:48.330Z,3.28
2019-04-27T18:59:58.267Z,3.20
2019-04-27T19:05:05.524Z,2.94
2019-04-27T19:10:14.416Z,3.34
2019-04-27T19:15:23.257Z,2.35
2019-04-27T19:20:32.113Z,2.97
2019-04-27T19:25:40.952Z,2.88
2019-04-27T19:30:49.828Z,2.65
2019-04-27T19:35:58.691Z,2.36
2019-04-27T19:41:07.919Z,2.21
2019-04-27T19:46:16.004Z,2.50
2019-04-27T19:51:24.883Z,2.47
2019-04-27T19:56:33.754Z,2.20
2019-04-27T20:01:42.611Z,2.34
2019-04-27T20:06:51.525Z,2.01
2019-04-27T20:12:00.833Z,1.76
2019-04-27T20:17:08.907Z,1.56
2019-04-27T20:22:17.799Z,1.94
2019-04-27T20:27:26.632Z,2.14
2019-04-27T20:32:35.588Z,1.96
2019-04-27T20:37:44.421Z,2.05
2019-04-27T20:42:53.286Z,2.09
2019-04-27T20:48:02.163Z,1.91
2019-04-27T20:53:12.574Z,2.14
2019-04-27T20:58:21.125Z,2.35
2019-04-27T21:03:27.701Z,2.10
2019-04-27T21:08:36.557Z,2.02
2019-04-27T21:13:45.380Z,2.28
2019-04-27T21:18:54.232Z,2.27
2019-04-27T21:24:03.099Z,2.03
2019-04-27T21:29:12.002Z,2.02
2019-04-27T21:34:20.847Z,2.04
2019-04-27T21:39:29.717Z,1.90
2019-04-27T21:44:38.571Z,2.04
2019-04-27T21:49:47.416Z,1.51
2019-04-27T21:54:56.305Z,1.78
2019-04-27T22:00:05.240Z,1.59
2019-04-27T22:05:14.081Z,1.80
2019-04-27T22:10:22.967Z,1.30
2019-04-27T22:15:31.805Z,1.47
2019-04-27T22:20:42.420Z,1.35
2019-04-27T22:25:49.064Z,1.91
2019-04-27T22:30:57.948Z,1.91
2019-04-27T22:36:06.827Z,1.72
2019-04-27T22:41:15.676Z,1.99
2019-04-27T22:46:24.691Z,1.60
2019-04-27T22:51:33.593Z,1.92
2019-04-27T22:56:42.473Z,1.58
2019-04-27T23:01:51.369Z,1.52
2019-04-27T23:07:00.653Z,1.54
2019-04-27T23:12:08.580Z,1.57
2019-04-27T23:17:17.429Z,1.56
2019-04-27T23:22:26.284Z,1.68
2019-04-27T23:27:35.140Z,1.64
2019-04-27T23:32:43.977Z,1.20
2019-04-27T23:37:53.001Z,1.45
2019-04-27T23:43:01.736Z,1.27
2019-04-27T23:48:12.314Z,1.41
2019-04-27T23:53:18.929Z,1.33
2019-04-27T23:58:27.776Z,1.97
